createdAt,value
2019-01-16T00:00:35.443Z,98.73
2019-01-16T00:03:08.407Z,98.58
2019-01-16T00:05:41.521Z,98.51
2019-01-16T00:08:28.297Z,98.39
2019-01-16T00:11:16.195Z,98.20
2019-01-16T00:14:01.410Z,98.38
2019-01-16T00:16:34.671Z,98.45
2019-01-16T00:19:13.785Z,98.30
2019-01-16T00:21:53.067Z,98.20
2019-01-16T00:24:41.339Z,98.02
2019-01-16T00:27:20.210Z,97.99
2019-01-16T00:29:53.280Z,97.92
2019-01-16T00:32:35.706Z,97.93
2019-01-16T00:35:07.767Z,97.81
2019-01-16T00:37:52.874Z,97.64
2019-01-16T00:40:39.313Z,97.55
2019-01-16T00:43:15.163Z,97.35
2019-01-16T00:45:47.962Z,97.22
2019-01-16T00:48:24.627Z,97.24
2019-01-16T00:51:07.917Z,97.18
2019-01-16T00:53:46.722Z,97.10
2019-01-16T00:56:22.309Z,97.06
2019-01-16T00:58:55.375Z,97.10
2019-01-16T01:01:42.119Z,97.07
2019-01-16T01:04:28.595Z,97.03
2019-01-16T01:07:04.860Z,96.91
2019-01-16T01:09:49.876Z,97.07
2019-01-16T01:12:22.708Z,97.08
2019-01-16T01:14:56.544Z,97.28
2019-01-16T01:17:29.799Z,97.23
2019-01-16T01:20:16.281Z,97.42
2019-01-16T01:22:46.388Z,97.45
2019-01-16T01:25:19.450Z,97.79
2019-01-16T01:27:52.463Z,97.93
2019-01-16T01:30:38.885Z,97.69
2019-01-16T01:33:08.993Z,97.87
2019-01-16T01:35:39.122Z,97.95
2019-01-16T01:38:25.099Z,98.10
2019-01-16T01:40:55.190Z,97.89
2019-01-16T01:43:25.290Z,97.84
2019-01-16T01:46:04.207Z,97.72
2019-01-16T01:48:39.933Z,97.60
2019-01-16T01:51:12.129Z,97.69
2019-01-16T01:53:44.944Z,97.55
2019-01-16T01:56:31.447Z,97.58
2019-01-16T01:59:10.447Z,97.55
2019-01-16T02:01:43.486Z,97.33
2019-01-16T02:04:25.635Z,97.24
2019-01-16T02:06:55.761Z,97.19
2019-01-16T02:09:42.056Z,97.29
2019-01-16T02:12:17.679Z,97.34
2019-01-16T02:15:04.139Z,97.57
2019-01-16T02:17:40.359Z,97.52
2019-01-16T02:20:29.130Z,97.41
2019-01-16T02:23:14.366Z,97.37
2019-01-16T02:26:00.878Z,97.40
2019-01-16T02:28:39.885Z,97.34
2019-01-16T02:31:12.897Z,97.29
2019-01-16T02:33:58.171Z,97.33
2019-01-16T02:36:28.270Z,97.21
2019-01-16T02:39:10.440Z,97.19
2019-01-16T02:41:52.755Z,97.26
2019-01-16T02:44:22.852Z,97.24
2019-01-16T02:47:09.213Z,97.66
2019-01-16T02:49:42.001Z,97.66
2019-01-16T02:52:14.554Z,98.38
2019-01-16T02:54:44.658Z,98.62
2019-01-16T02:57:33.208Z,98.54
2019-01-16T03:00:06.439Z,98.65
2019-01-16T03:02:39.357Z,98.82
2019-01-16T03:05:09.449Z,99.11
2019-01-16T03:07:39.578Z,98.92
2019-01-16T03:10:13.356Z,98.96
2019-01-16T03:12:58.681Z,99.07
2019-01-16T03:15:28.780Z,99.23
2019-01-16T03:17:58.893Z,99.65
2019-01-16T03:20:44.099Z,100.00
2019-01-16T03:23:16.885Z,99.95
2019-01-16T03:26:05.173Z,99.96
2019-01-16T03:28:35.294Z,99.98
2019-01-16T03:31:21.781Z,99.99
2019-01-16T03:34:04.033Z,99.95
2019-01-16T03:36:36.761Z,100.00
2019-01-16T03:39:18.588Z,100.00
2019-01-16T03:41:57.606Z,100.00
2019-01-16T03:44:30.291Z,100.00
2019-01-16T03:47:18.707Z,100.00
2019-01-16T03:49:51.573Z,100.00
2019-01-16T03:52:21.694Z,100.00
2019-01-16T03:54:54.372Z,100.00
2019-01-16T03:57:30.016Z,100.00
2019-01-16T04:00:08.979Z,100.00
2019-01-16T04:02:51.332Z,99.88
2019-01-16T04:05:21.479Z,99.85
2019-01-16T04:07:51.569Z,100.00
2019-01-16T04:10:28.019Z,99.95
2019-01-16T04:13:07.463Z,99.85
2019-01-16T04:15:37.583Z,99.81
2019-01-16T04:18:10.331Z,99.85
2019-01-16T04:20:45.919Z,99.85
2019-01-16T04:23:21.518Z,99.99
2019-01-16T04:25:51.648Z,99.68
2019-01-16T04:28:30.717Z,99.38
2019-01-16T04:31:00.844Z,98.97
2019-01-16T04:33:33.924Z,98.80
2019-01-16T04:36:20.108Z,98.68
2019-01-16T04:38:50.215Z,98.73
2019-01-16T04:41:23.111Z,98.51
2019-01-16T04:43:55.922Z,98.47
2019-01-16T04:46:28.491Z,98.32
2019-01-16T04:48:58.600Z,98.20
2019-01-16T04:51:28.725Z,98.01
2019-01-16T04:54:10.702Z,97.88
2019-01-16T04:56:59.007Z,97.63
2019-01-16T04:59:29.115Z,97.54
2019-01-16T05:02:15.549Z,97.50
2019-01-16T05:04:48.792Z,97.42
2019-01-16T05:07:21.579Z,97.25
2019-01-16T05:10:00.859Z,96.88
2019-01-16T05:12:33.444Z,96.74
2019-01-16T05:15:06.338Z,96.75
2019-01-16T05:17:36.480Z,96.66
2019-01-16T05:20:18.830Z,96.74
2019-01-16T05:23:01.069Z,96.39
2019-01-16T05:25:49.480Z,96.13
2019-01-16T05:28:22.544Z,96.08
2019-01-16T05:31:11.021Z,95.69
2019-01-16T05:33:41.113Z,95.36
2019-01-16T05:36:26.621Z,94.30
2019-01-16T05:39:02.485Z,94.25
2019-01-16T05:41:35.577Z,93.97
2019-01-16T05:44:15.217Z,94.30
2019-01-16T05:46:48.057Z,94.06
2019-01-16T05:49:18.238Z,93.56
2019-01-16T05:51:51.102Z,93.62
2019-01-16T05:54:29.976Z,93.57
2019-01-16T05:57:09.001Z,93.59
2019-01-16T05:59:41.550Z,93.23
2019-01-16T06:02:17.384Z,91.88
2019-01-16T06:04:59.747Z,92.10
2019-01-16T06:07:46.021Z,91.50
2019-01-16T06:10:24.653Z,91.71
2019-01-16T06:12:54.782Z,91.71
2019-01-16T06:15:41.372Z,91.73
2019-01-16T06:18:11.492Z,91.59
2019-01-16T06:20:44.275Z,91.45
2019-01-16T06:23:30.825Z,91.50
2019-01-16T06:26:03.473Z,91.29
2019-01-16T06:28:39.737Z,91.02
2019-01-16T06:31:15.675Z,91.50
2019-01-16T06:33:55.012Z,91.40
2019-01-16T06:36:41.721Z,91.72
2019-01-16T06:39:14.790Z,91.54
2019-01-16T06:41:50.901Z,91.59
2019-01-16T06:44:21.030Z,91.65
2019-01-16T06:46:51.129Z,91.72
2019-01-16T06:49:21.252Z,91.97
2019-01-16T06:51:51.353Z,91.94
2019-01-16T06:54:21.474Z,92.04
2019-01-16T06:57:03.506Z,92.24
2019-01-16T06:59:36.046Z,92.36
2019-01-16T07:02:09.374Z,92.08
2019-01-16T07:04:39.498Z,92.24
2019-01-16T07:07:09.601Z,92.37
2019-01-16T07:09:56.159Z,92.41
2019-01-16T07:12:42.873Z,92.83
2019-01-16T07:15:30.392Z,92.65
2019-01-16T07:18:03.185Z,92.73
2019-01-16T07:20:49.227Z,92.69
2019-01-16T07:23:31.395Z,92.53
2019-01-16T07:26:07.491Z,92.30
2019-01-16T07:28:43.339Z,92.53
2019-01-16T07:31:22.270Z,92.41
2019-01-16T07:33:58.371Z,92.38
2019-01-16T07:36:44.680Z,91.96
2019-01-16T07:39:31.225Z,92.00
2019-01-16T07:42:19.449Z,91.90
2019-01-16T07:44:52.544Z,91.87
2019-01-16T07:47:34.925Z,91.78
2019-01-16T07:50:17.220Z,91.80
2019-01-16T07:53:00.763Z,91.63
2019-01-16T07:55:36.570Z,91.59
2019-01-16T07:58:21.448Z,91.53
2019-01-16T08:00:54.293Z,91.67
2019-01-16T08:03:24.389Z,91.08
2019-01-16T08:05:59.952Z,91.00
2019-01-16T08:08:30.065Z,91.50
2019-01-16T08:11:16.716Z,91.26
2019-01-16T08:13:52.550Z,91.61
2019-01-16T08:16:38.779Z,91.67
2019-01-16T08:19:14.869Z,91.65
2019-01-16T08:21:44.990Z,91.17
2019-01-16T08:24:27.402Z,91.43
2019-01-16T08:26:57.528Z,90.92
2019-01-16T08:29:27.637Z,91.08
2019-01-16T08:31:57.758Z,90.95
2019-01-16T08:34:27.863Z,91.08
2019-01-16T08:36:57.988Z,90.69
2019-01-16T08:39:40.134Z,90.64
2019-01-16T08:42:19.189Z,90.78
2019-01-16T08:44:52.492Z,90.92
2019-01-16T08:47:22.609Z,90.47
2019-01-16T08:50:07.992Z,90.70
2019-01-16T08:52:38.125Z,90.54
2019-01-16T08:55:08.778Z,90.67
2019-01-16T08:57:50.879Z,90.61
2019-01-16T09:00:32.724Z,90.79
2019-01-16T09:03:05.770Z,90.89
2019-01-16T09:05:44.895Z,90.82
2019-01-16T09:08:21.005Z,90.87
2019-01-16T09:10:51.103Z,90.85
2019-01-16T09:13:21.252Z,90.65
2019-01-16T09:15:51.351Z,90.89
2019-01-16T09:18:27.166Z,90.80
2019-01-16T09:20:57.257Z,90.72
2019-01-16T09:23:33.207Z,90.53
2019-01-16T09:26:06.103Z,90.85
2019-01-16T09:28:52.283Z,91.03
2019-01-16T09:31:22.374Z,90.97
2019-01-16T09:34:08.405Z,90.98
2019-01-16T09:36:54.806Z,90.91
2019-01-16T09:39:30.610Z,90.75
2019-01-16T09:42:03.649Z,90.87
2019-01-16T09:44:36.462Z,90.91
2019-01-16T09:47:12.147Z,90.71
2019-01-16T09:49:42.269Z,90.54
2019-01-16T09:52:12.374Z,90.34
2019-01-16T09:54:51.556Z,90.40
2019-01-16T09:57:30.635Z,90.39
2019-01-16T10:00:16.064Z,90.57
2019-01-16T10:02:48.569Z,90.84
2019-01-16T10:05:18.689Z,90.94
2019-01-16T10:07:48.785Z,90.60
2019-01-16T10:10:36.962Z,90.57
2019-01-16T10:13:12.860Z,90.91
2019-01-16T10:15:45.583Z,90.18
2019-01-16T10:18:15.648Z,90.15
2019-01-16T10:21:01.957Z,90.00
2019-01-16T10:23:50.522Z,90.05
2019-01-16T10:26:21.582Z,89.53
2019-01-16T10:28:57.239Z,89.61
2019-01-16T10:31:29.747Z,88.93
2019-01-16T10:34:05.591Z,88.94
2019-01-16T10:36:48.066Z,89.17
2019-01-16T10:39:34.651Z,89.28
2019-01-16T10:42:20.946Z,89.04
2019-01-16T10:44:51.067Z,89.13
2019-01-16T10:47:21.169Z,88.79
2019-01-16T10:52:38.323Z,88.82
2019-01-16T10:55:08.683Z,88.42
2019-01-16T10:57:53.775Z,88.22
2019-01-16T11:00:23.896Z,88.53
2019-01-16T11:02:59.678Z,88.53
2019-01-16T11:05:32.628Z,88.19
2019-01-16T11:08:11.489Z,88.18
2019-01-16T11:10:57.477Z,87.82
2019-01-16T11:13:45.578Z,88.52
2019-01-16T11:16:24.344Z,88.16
2019-01-16T11:18:57.216Z,88.42
2019-01-16T11:21:30.368Z,88.22
2019-01-16T11:24:02.899Z,88.42
2019-01-16T11:26:44.876Z,88.10
2019-01-16T11:29:30.309Z,88.17
2019-01-16T11:32:16.781Z,87.83
2019-01-16T11:34:46.875Z,87.94
2019-01-16T11:37:33.255Z,87.43
2019-01-16T11:40:06.436Z,86.97
2019-01-16T11:42:39.070Z,87.58
2019-01-16T11:45:24.619Z,87.53
2019-01-16T11:48:11.130Z,86.91
2019-01-16T11:50:43.992Z,86.32
2019-01-16T11:53:26.390Z,86.87
2019-01-16T11:56:11.663Z,86.87
2019-01-16T11:58:41.762Z,86.23
2019-01-16T12:01:14.521Z,85.66
2019-01-16T12:04:02.970Z,85.85
2019-01-16T12:06:38.820Z,85.97
2019-01-16T12:09:27.178Z,86.33
2019-01-16T12:12:09.262Z,86.27
2019-01-16T12:14:42.078Z,86.21
2019-01-16T12:17:29.755Z,85.34
2019-01-16T12:20:02.410Z,85.25
2019-01-16T12:22:32.524Z,85.78
2019-01-16T12:25:08.732Z,85.70
2019-01-16T12:27:53.895Z,85.35
2019-01-16T12:30:30.675Z,85.01
2019-01-16T12:33:06.221Z,85.12
2019-01-16T12:35:39.259Z,85.84
2019-01-16T12:38:21.051Z,85.53
2019-01-16T12:40:57.135Z,84.95
2019-01-16T12:43:33.384Z,84.76
2019-01-16T12:46:09.154Z,84.87
2019-01-16T12:48:44.950Z,85.05
2019-01-16T12:54:32.948Z,84.32
2019-01-16T12:57:03.049Z,84.94
2019-01-16T12:59:33.203Z,85.08
2019-01-16T13:02:12.638Z,84.34
2019-01-16T13:04:54.699Z,84.35
2019-01-16T13:07:40.019Z,85.05
2019-01-16T13:10:15.245Z,84.91
2019-01-16T13:12:45.338Z,84.50
2019-01-16T13:15:21.339Z,84.00
2019-01-16T13:17:53.994Z,84.53
2019-01-16T13:20:24.120Z,84.15
2019-01-16T13:22:59.923Z,84.67
2019-01-16T13:25:48.253Z,84.69
2019-01-16T13:28:18.365Z,84.74
2019-01-16T13:30:50.995Z,83.79
2019-01-16T13:33:39.259Z,83.88
2019-01-16T13:36:25.305Z,84.19
2019-01-16T13:38:55.421Z,83.89
2019-01-16T13:41:31.480Z,84.05
2019-01-16T13:44:04.503Z,84.00
2019-01-16T13:46:40.679Z,84.13
2019-01-16T13:49:13.348Z,84.03
2019-01-16T13:51:52.264Z,84.04
2019-01-16T13:54:28.639Z,84.39
2019-01-16T13:57:15.073Z,84.85
2019-01-16T14:02:53.083Z,84.28
2019-01-16T14:05:29.115Z,84.42
2019-01-16T14:08:15.619Z,84.31
2019-01-16T14:10:45.744Z,83.85
2019-01-16T14:13:24.589Z,84.65
2019-01-16T14:16:06.444Z,84.58
2019-01-16T14:18:42.444Z,84.41
2019-01-16T14:21:21.656Z,84.10
2019-01-16T14:23:58.031Z,84.47
2019-01-16T14:26:43.504Z,84.17
2019-01-16T14:29:25.645Z,84.38
2019-01-16T14:32:01.780Z,84.59
2019-01-16T14:34:34.465Z,84.21
2019-01-16T14:37:20.989Z,84.08
2019-01-16T14:39:54.028Z,84.58
2019-01-16T14:42:36.211Z,84.16
2019-01-16T14:45:24.533Z,84.58
2019-01-16T14:47:57.278Z,84.81
2019-01-16T14:50:43.716Z,84.67
2019-01-16T14:53:13.815Z,84.42
2019-01-16T14:55:43.933Z,84.67
2019-01-16T14:58:14.029Z,84.59
2019-01-16T15:00:46.965Z,85.05
2019-01-16T15:03:35.438Z,85.18
2019-01-16T15:06:08.800Z,85.40
2019-01-16T15:08:51.142Z,84.66
2019-01-16T15:11:30.030Z,84.52
2019-01-16T15:14:02.850Z,84.70
2019-01-16T15:16:41.738Z,85.05
2019-01-16T15:19:28.218Z,85.12
2019-01-16T15:22:14.753Z,85.09
2019-01-16T15:24:51.078Z,85.01
2019-01-16T15:27:26.850Z,84.97
2019-01-16T15:29:59.635Z,84.90
2019-01-16T15:35:20.781Z,84.56
2019-01-16T15:37:59.712Z,84.26
2019-01-16T15:40:29.904Z,84.67
2019-01-16T15:43:00.017Z,84.65
2019-01-16T15:45:32.815Z,84.58
2019-01-16T15:48:15.102Z,84.10
2019-01-16T15:50:47.877Z,84.29
2019-01-16T15:53:20.483Z,84.32
2019-01-16T15:56:02.461Z,84.42
2019-01-16T15:58:32.598Z,84.17
2019-01-16T16:01:02.726Z,84.03
2019-01-16T16:03:41.673Z,84.09
2019-01-16T16:06:11.785Z,84.14
2019-01-16T16:08:53.765Z,83.79
2019-01-16T16:11:23.863Z,84.06
2019-01-16T16:14:05.764Z,84.05
2019-01-16T16:16:52.413Z,83.97
2019-01-16T16:19:34.371Z,83.67
2019-01-16T16:22:19.495Z,84.07
2019-01-16T16:24:58.640Z,83.83
2019-01-16T16:27:34.497Z,83.88
2019-01-16T16:30:07.666Z,83.50
2019-01-16T16:32:40.227Z,83.35
2019-01-16T16:35:19.092Z,83.41
2019-01-16T16:38:07.196Z,83.50
2019-01-16T16:40:39.982Z,83.12
2019-01-16T16:43:19.325Z,83.22
2019-01-16T16:45:55.237Z,82.64
2019-01-16T16:48:34.198Z,82.34
2019-01-16T16:51:13.019Z,82.20
2019-01-16T16:53:45.800Z,82.66
2019-01-16T16:56:32.056Z,82.55
2019-01-16T16:59:18.415Z,82.63
2019-01-16T17:01:50.915Z,82.49
2019-01-16T17:04:27.005Z,82.07
2019-01-16T17:06:59.814Z,81.91
2019-01-16T17:09:35.780Z,81.48
2019-01-16T17:12:08.356Z,82.38
2019-01-16T17:14:41.111Z,82.09
2019-01-16T17:17:23.201Z,81.52
2019-01-16T17:20:09.790Z,81.63
2019-01-16T17:22:42.336Z,81.86
2019-01-16T17:25:24.283Z,82.04
2019-01-16T17:28:00.383Z,81.67
2019-01-16T17:30:46.769Z,81.27
2019-01-16T17:33:31.703Z,81.30
2019-01-16T17:36:13.731Z,81.15
2019-01-16T17:38:52.918Z,80.64
2019-01-16T17:41:25.835Z,80.30
2019-01-16T17:43:55.925Z,80.80
2019-01-16T17:46:26.045Z,80.30
2019-01-16T17:48:56.681Z,80.38
2019-01-16T17:51:43.024Z,80.21
2019-01-16T17:54:29.102Z,80.13
2019-01-16T17:56:59.216Z,79.51
2019-01-16T17:59:35.460Z,79.88
2019-01-16T18:02:05.728Z,79.44
2019-01-16T18:04:35.920Z,80.01
2019-01-16T18:07:18.575Z,80.00
2019-01-16T18:10:04.835Z,79.76
2019-01-16T18:12:40.738Z,78.66
2019-01-16T18:15:14.825Z,78.55
2019-01-16T18:17:56.520Z,79.29
2019-01-16T18:20:32.084Z,78.82
2019-01-16T18:23:17.219Z,78.38
2019-01-16T18:25:56.174Z,78.55
2019-01-16T18:28:26.267Z,79.12
2019-01-16T18:31:12.329Z,78.44
2019-01-16T18:36:50.620Z,78.91
2019-01-16T18:39:29.813Z,78.44
2019-01-16T18:42:08.419Z,77.51
2019-01-16T18:44:53.495Z,78.02
2019-01-16T18:47:23.613Z,77.87
2019-01-16T18:49:53.709Z,78.48
2019-01-16T18:52:26.804Z,77.75
2019-01-16T18:55:02.726Z,77.64
2019-01-16T18:57:35.926Z,77.88
2019-01-16T19:00:11.987Z,78.47
2019-01-16T19:02:58.252Z,78.24
2019-01-16T19:05:37.114Z,78.19
2019-01-16T19:08:23.471Z,78.60
2019-01-16T19:10:53.574Z,78.49
2019-01-16T19:13:39.923Z,77.21
2019-01-16T19:16:15.885Z,76.88
2019-01-16T19:19:02.224Z,77.76
2019-01-16T19:21:35.313Z,76.12
2019-01-16T19:24:21.772Z,76.70
2019-01-16T19:26:54.805Z,76.32
2019-01-16T19:29:24.888Z,76.25
2019-01-16T19:32:04.193Z,77.03
2019-01-16T19:34:37.044Z,76.14
2019-01-16T19:37:10.881Z,76.68
2019-01-16T19:39:41.034Z,76.42
2019-01-16T19:42:19.774Z,76.06
2019-01-16T19:44:52.545Z,77.34
2019-01-16T19:47:28.769Z,76.38
2019-01-16T19:49:58.866Z,76.92
2019-01-16T19:52:29.016Z,77.10
2019-01-16T19:55:01.871Z,76.01
2019-01-16T19:57:47.350Z,76.12
2019-01-16T20:00:22.390Z,75.90
2019-01-16T20:03:10.832Z,77.11
2019-01-16T20:05:46.427Z,75.80
2019-01-16T20:08:23.413Z,76.95
2019-01-16T20:10:59.698Z,76.02
2019-01-16T20:13:29.814Z,76.45
2019-01-16T20:16:02.629Z,76.53
2019-01-16T20:18:44.366Z,75.71
2019-01-16T20:21:29.752Z,76.42
2019-01-16T20:24:05.826Z,75.76
2019-01-16T20:26:42.029Z,75.50
2019-01-16T20:29:30.737Z,75.52
2019-01-16T20:32:00.905Z,75.90
2019-01-16T20:34:42.680Z,75.52
2019-01-16T20:37:12.768Z,76.46
2019-01-16T20:39:45.594Z,76.29
2019-01-16T20:42:15.677Z,75.85
2019-01-16T20:44:45.797Z,76.69
2019-01-16T20:47:21.657Z,75.48
2019-01-16T20:49:57.474Z,75.84
2019-01-16T20:52:36.435Z,76.02
2019-01-16T20:55:13.198Z,75.42
2019-01-16T20:57:43.291Z,76.54
2019-01-16T21:00:32.959Z,75.87
2019-01-16T21:03:19.754Z,76.08
2019-01-16T21:05:58.845Z,75.92
2019-01-16T21:08:45.569Z,76.73
2019-01-16T21:11:33.772Z,76.06
2019-01-16T21:14:09.668Z,75.79
2019-01-16T21:16:55.838Z,76.12
2019-01-16T21:19:28.902Z,76.29
2019-01-16T21:22:02.072Z,76.18
2019-01-16T21:24:34.716Z,76.81
2019-01-16T21:27:07.429Z,76.96
2019-01-16T21:29:46.848Z,76.31
2019-01-16T21:32:19.393Z,76.33
2019-01-16T21:34:52.474Z,77.06
2019-01-16T21:37:38.704Z,76.73
2019-01-16T21:40:16.978Z,77.49
2019-01-16T21:42:47.225Z,77.77
2019-01-16T21:45:17.316Z,77.59
2019-01-16T21:47:53.457Z,77.76
2019-01-16T21:50:26.087Z,78.31
2019-01-16T21:53:01.807Z,78.14
2019-01-16T21:55:37.375Z,78.63
2019-01-16T21:58:25.320Z,78.52
2019-01-16T22:01:11.634Z,78.28
2019-01-16T22:03:41.745Z,78.35
2019-01-16T22:06:27.904Z,78.88
2019-01-16T22:09:03.684Z,78.70
2019-01-16T22:11:50.319Z,79.02
2019-01-16T22:14:20.434Z,79.16
2019-01-16T22:19:55.785Z,79.17
2019-01-16T22:22:25.879Z,79.54
2019-01-16T22:25:01.764Z,79.84
2019-01-16T22:27:31.925Z,79.94
2019-01-16T22:30:05.180Z,79.77
2019-01-16T22:32:38.304Z,79.88
2019-01-16T22:35:27.225Z,80.25
2019-01-16T22:38:13.676Z,80.12
2019-01-16T22:40:55.764Z,80.33
2019-01-16T22:43:37.716Z,80.74
2019-01-16T22:46:07.814Z,80.59
2019-01-16T22:48:43.843Z,80.80
2019-01-16T22:51:30.550Z,80.61
2019-01-16T22:54:03.489Z,80.72
2019-01-16T22:56:33.600Z,80.85
2019-01-16T22:59:06.156Z,80.72
2019-01-16T23:01:44.774Z,80.69
2019-01-16T23:04:17.362Z,80.67
2019-01-16T23:06:47.473Z,81.12
2019-01-16T23:09:20.337Z,81.20
2019-01-16T23:12:05.461Z,81.08
2019-01-16T23:14:35.589Z,81.41
2019-01-16T23:17:05.853Z,81.34
2019-01-16T23:19:48.337Z,81.44
2019-01-16T23:22:27.593Z,81.09
2019-01-16T23:25:06.618Z,81.25
2019-01-16T23:27:36.704Z,81.39
2019-01-16T23:30:15.722Z,81.29
2019-01-16T23:33:02.361Z,81.45
2019-01-16T23:35:47.711Z,81.66
2019-01-16T23:38:34.536Z,81.70
2019-01-16T23:41:07.840Z,81.78
2019-01-16T23:43:47.043Z,81.40
2019-01-16T23:46:29.274Z,81.75
2019-01-16T23:49:04.980Z,81.55
2019-01-16T23:51:53.399Z,81.74
2019-01-16T23:54:32.824Z,81.55
2019-01-16T23:57:08.879Z,81.82
2019-01-16T23:59:55.201Z,82.15
